Private Wetterstation Wechselburg
Wetterdaten: Woche 09.01.23 - 15.01.23 (KW2)
Datum Zeit Temp. +2m Bodentemp. Temp.+5cm Temp. Wind Windchill X Diff Temp. Feuchte +2m Feuchte +5cm Luftdruck Regen Wind Richtung Sonnenschein Taupunkt Windchill Windben
09.01.2023 00:00 3,9 C 9,9 C 1,1 C 3,8 C 3,5 C 0,0 C 87 % 92 % 1001,3 hPa 0,0 l/m 0,0 km/h (0 Bft) N 0,00 h 1,9 C 3,5 C 0,0 km/h (0 Bft)
09.01.2023 01:00 4,5 C 9,7 C 1,8 C 4,5 C 4,5 C 0,0 C 87 % 92 % 1000,3 hPa 0,0 l/m 0,0 km/h (0 Bft) N 0,00 h 2,6 C 4,5 C 0,0 km/h (0 Bft)
09.01.2023 02:00 4,9 C 9,7 C 2,1 C 5,0 C 5,0 C 0,1 C 87 % 91 % 999,3 hPa 0,0 l/m 0,0 km/h (0 Bft) N 0,00 h 2,9 C 5,0 C 0,2 km/h (0 Bft)
09.01.2023 03:00 6,3 C 9,7 C 3,7 C 6,3 C 6,0 C 0,1 C 87 % 92 % 999,0 hPa 0,7 l/m 1,0 km/h (0 Bft) O-NO 0,00 h 4,3 C 6,0 C 2,4 km/h (1 Bft)
09.01.2023 04:00 6,3 C 9,9 C 3,7 C 6,1 C 5,8 C 0,0 C 86 % 92 % 998,4 hPa 0,0 l/m 0,0 km/h (0 Bft) N 0,00 h 4,1 C 5,8 C 0,0 km/h (0 Bft)
09.01.2023 05:00 5,8 C 9,9 C 3,3 C 5,7 C 5,4 C 0,0 C 87 % 92 % 997,9 hPa 0,0 l/m 0,0 km/h (0 Bft) N 0,00 h 3,8 C 5,4 C 0,0 km/h (0 Bft)
09.01.2023 06:00 5,7 C 9,9 C 3,2 C 5,5 C 5,3 C 0,0 C 88 % 93 % 997,5 hPa 0,0 l/m 0,0 km/h (0 Bft) N 0,00 h 3,8 C 5,3 C 0,0 km/h (0 Bft)
09.01.2023 07:00 6,1 C 9,9 C 3,4 C 5,8 C 5,3 C 0,0 C 88 % 93 % 997,3 hPa 0,0 l/m 2,8 km/h (1 Bft) S 0,00 h 4,2 C 4,8 C 6,1 km/h (2 Bft)
09.01.2023 08:00 7,4 C 9,6 C 4,5 C 7,2 C 6,7 C 0,0 C 84 % 91 % 997,8 hPa 0,0 l/m 6,3 km/h (2 Bft) S-SO 0,00 h 5,0 C 5,6 C 8,5 km/h (2 Bft)
09.01.2023 09:00 7,8 C 9,5 C 5,3 C 7,9 C 7,7 C 0,2 C 83 % 89 % 998,7 hPa 0,7 l/m 3,3 km/h (1 Bft) O-SO 0,00 h 5,1 C 7,4 C 3,8 km/h (1 Bft)
09.01.2023 10:00 7,8 C 9,6 C 5,8 C 8,1 C 8,0 C 0,3 C 84 % 88 % 999,6 hPa 0,0 l/m 1,4 km/h (1 Bft) S 0,00 h 5,3 C 8,0 C 2,3 km/h (1 Bft)
09.01.2023 11:00 7,6 C 9,5 C 5,2 C 8,0 C 7,8 C 0,4 C 84 % 90 % 1000,3 hPa 0,0 l/m 5,1 km/h (1 Bft) S-SW 0,00 h 5,1 C 7,3 C 7,0 km/h (2 Bft)
09.01.2023 12:00 8,1 C 9,4 C 5,5 C 8,9 C 8,9 C 0,8 C 78 % 86 % 1000,5 hPa 0,0 l/m 3,8 km/h (1 Bft) SW 0,00 h 4,5 C 8,8 C 5,8 km/h (2 Bft)
09.01.2023 13:00 8,6 C 9,4 C 6,0 C 9,2 C 9,2 C 0,6 C 73 % 81 % 1000,7 hPa 0,0 l/m 4,6 km/h (1 Bft) S 0,00 h 3,9 C 8,9 C 6,3 km/h (2 Bft)
09.01.2023 14:00 8,2 C 9,4 C 6,0 C 8,6 C 8,6 C 0,5 C 76 % 81 % 1001,1 hPa 0,0 l/m 1,5 km/h (1 Bft) S 0,00 h 4,1 C 8,6 C 3,1 km/h (1 Bft)
09.01.2023 15:00 7,4 C 9,5 C 4,8 C 7,0 C 6,3 C 0,0 C 79 % 85 % 1001,6 hPa 0,0 l/m 3,3 km/h (1 Bft) SW 0,00 h 4,0 C 6,1 C 5,5 km/h (1 Bft)
09.01.2023 16:00 6,4 C 9,7 C 3,8 C 6,1 C 5,5 C 0,0 C 83 % 89 % 1002,3 hPa 0,0 l/m 0,7 km/h (0 Bft) S 0,00 h 3,8 C 5,5 C 1,0 km/h (0 Bft)
09.01.2023 17:00 6,2 C 9,5 C 3,3 C 5,9 C 5,2 C 0,0 C 84 % 90 % 1002,9 hPa 0,0 l/m 0,7 km/h (0 Bft) S-SO 0,00 h 3,7 C 5,2 C 1,0 km/h (0 Bft)
09.01.2023 18:00 6,1 C 9,4 C 3,1 C 6,0 C 5,8 C 0,0 C 83 % 90 % 1003,8 hPa 0,0 l/m 1,2 km/h (1 Bft) S-SO 0,00 h 3,4 C 5,8 C 1,5 km/h (1 Bft)
09.01.2023 19:00 6,2 C 9,4 C 3,5 C 6,2 C 6,0 C 0,0 C 82 % 89 % 1004,6 hPa 0,0 l/m 2,3 km/h (1 Bft) S 0,00 h 3,3 C 6,0 C 3,8 km/h (1 Bft)
09.01.2023 20:00 5,7 C 9,3 C 3,3 C 5,6 C 5,4 C 0,0 C 82 % 89 % 1005,0 hPa 0,0 l/m 0,1 km/h (0 Bft) N 0,00 h 2,8 C 5,4 C 0,1 km/h (0 Bft)
09.01.2023 21:00 5,8 C 9,3 C 3,2 C 5,7 C 5,6 C 0,0 C 82 % 87 % 1005,9 hPa 0,0 l/m 1,5 km/h (1 Bft) S 0,00 h 3,0 C 5,6 C 1,8 km/h (1 Bft)
09.01.2023 22:00 5,5 C 9,3 C 2,9 C 5,3 C 5,1 C 0,0 C 83 % 88 % 1006,8 hPa 0,0 l/m 0,4 km/h (0 Bft) N 0,00 h 2,8 C 5,1 C 1,3 km/h (1 Bft)
09.01.2023 23:00 5,5 C 9,2 C 2,9 C 5,5 C 5,5 C 0,1 C 83 % 89 % 1007,9 hPa 0,0 l/m 0,5 km/h (0 Bft) N 0,00 h 2,8 C 5,5 C 0,6 km/h (0 Bft)
10.01.2023 00:00 5,4 C 9,2 C 3,0 C 5,5 C 5,4 C 0,1 C 83 % 88 % 1008,6 hPa 0,0 l/m 1,3 km/h (1 Bft) SW 0,00 h 2,8 C 5,4 C 2,6 km/h (1 Bft)
10.01.2023 01:00 4,7 C 9,3 C 2,0 C 4,6 C 4,2 C 0,0 C 83 % 89 % 1009,0 hPa 0,0 l/m 1,7 km/h (1 Bft) SW 0,00 h 2,1 C 4,2 C 2,5 km/h (1 Bft)
10.01.2023 02:00 4,4 C 9,1 C 1,8 C 4,4 C 4,2 C 0,0 C 84 % 90 % 1010,1 hPa 0,0 l/m 0,1 km/h (0 Bft) N 0,00 h 2,0 C 4,2 C 0,4 km/h (0 Bft)
10.01.2023 03:00 4,4 C 9,1 C 2,0 C 4,4 C 4,4 C 0,0 C 85 % 90 % 1010,7 hPa 0,0 l/m 0,0 km/h (0 Bft) N 0,00 h 2,1 C 4,4 C 0,0 km/h (0 Bft)
10.01.2023 04:00 4,7 C 9,1 C 2,2 C 4,8 C 4,8 C 0,1 C 85 % 90 % 1011,4 hPa 0,0 l/m 0,6 km/h (0 Bft) S-SW 0,00 h 2,4 C 4,8 C 2,0 km/h (1 Bft)
10.01.2023 05:00 5,0 C 9,0 C 2,6 C 5,2 C 5,2 C 0,1 C 84 % 90 % 1012,5 hPa 0,0 l/m 1,8 km/h (1 Bft) SW 0,00 h 2,6 C 5,2 C 3,1 km/h (1 Bft)
10.01.2023 06:00 5,0 C 8,9 C 2,6 C 5,1 C 5,1 C 0,1 C 84 % 89 % 1013,4 hPa 0,0 l/m 1,4 km/h (1 Bft) SW 0,00 h 2,6 C 5,1 C 3,7 km/h (1 Bft)
10.01.2023 07:00 4,9 C 9,0 C 2,6 C 4,8 C 4,7 C 0,0 C 85 % 90 % 1014,6 hPa 0,0 l/m 1,0 km/h (0 Bft) SW 0,00 h 2,6 C 4,7 C 1,7 km/h (1 Bft)
10.01.2023 08:00 4,9 C 9,0 C 2,5 C 4,7 C 4,5 C 0,0 C 86 % 91 % 1016,0 hPa 0,0 l/m 0,9 km/h (0 Bft) SW 0,00 h 2,7 C 4,5 C 1,1 km/h (1 Bft)
10.01.2023 09:00 5,2 C 8,9 C 2,6 C 5,2 C 5,1 C 0,0 C 86 % 91 % 1017,0 hPa 0,0 l/m 2,2 km/h (1 Bft) SW 0,00 h 3,0 C 5,0 C 3,1 km/h (1 Bft)
10.01.2023 10:00 5,5 C 8,9 C 3,3 C 5,9 C 5,9 C 0,4 C 86 % 91 % 1018,0 hPa 0,0 l/m 2,9 km/h (1 Bft) SW 0,00 h 3,3 C 5,9 C 4,5 km/h (1 Bft)
10.01.2023 11:00 5,9 C 8,8 C 4,0 C 6,2 C 6,2 C 0,3 C 83 % 88 % 1018,4 hPa 0,0 l/m 4,7 km/h (1 Bft) SW 0,00 h 3,2 C 5,6 C 7,2 km/h (2 Bft)
10.01.2023 12:00 6,3 C 8,7 C 4,6 C 7,1 C 7,1 C 0,8 C 81 % 85 % 1018,4 hPa 0,0 l/m 3,5 km/h (1 Bft) SW 0,00 h 3,2 C 7,0 C 4,1 km/h (1 Bft)
10.01.2023 13:00 6,8 C 8,7 C 5,2 C 7,9 C 7,9 C 1,1 C 77 % 80 % 1018,7 hPa 0,0 l/m 3,6 km/h (1 Bft) SW 0,00 h 3,0 C 7,8 C 5,9 km/h (2 Bft)
10.01.2023 14:00 6,6 C 8,7 C 4,8 C 7,0 C 6,9 C 0,4 C 76 % 80 % 1019,3 hPa 0,0 l/m 3,5 km/h (1 Bft) SW 0,00 h 2,7 C 6,8 C 4,5 km/h (1 Bft)
10.01.2023 15:00 6,5 C 8,7 C 4,5 C 6,9 C 6,9 C 0,4 C 76 % 80 % 1019,5 hPa 0,0 l/m 1,5 km/h (1 Bft) SW 0,00 h 2,6 C 6,9 C 3,0 km/h (1 Bft)
10.01.2023 16:00 6,3 C 8,7 C 4,0 C 6,3 C 6,2 C 0,0 C 76 % 81 % 1019,2 hPa 0,0 l/m 0,9 km/h (0 Bft) W-SW 0,00 h 2,4 C 6,2 C 1,5 km/h (1 Bft)
10.01.2023 17:00 5,9 C 8,7 C 3,7 C 5,9 C 5,8 C 0,0 C 78 % 82 % 1019,4 hPa 0,0 l/m 0,8 km/h (0 Bft) S-SO 0,00 h 2,4 C 5,8 C 2,2 km/h (1 Bft)
10.01.2023 18:00 5,4 C 8,7 C 3,1 C 5,3 C 5,0 C 0,0 C 78 % 82 % 1019,5 hPa 0,0 l/m 2,2 km/h (1 Bft) S-SO 0,00 h 1,9 C 5,0 C 3,1 km/h (1 Bft)
10.01.2023 19:00 4,6 C 8,7 C 2,1 C 4,3 C 3,7 C 0,0 C 80 % 84 % 1019,4 hPa 0,0 l/m 1,3 km/h (1 Bft) S 0,00 h 1,4 C 3,7 C 2,0 km/h (1 Bft)
10.01.2023 20:00 4,1 C 8,7 C 1,2 C 3,8 C 3,1 C 0,0 C 80 % 86 % 1019,5 hPa 0,0 l/m 2,3 km/h (1 Bft) S 0,00 h 1,0 C 3,1 C 3,7 km/h (1 Bft)
10.01.2023 21:00 4,1 C 8,6 C 0,9 C 3,7 C 2,9 C 0,0 C 80 % 86 % 1019,3 hPa 0,0 l/m 3,7 km/h (1 Bft) S-SO 0,00 h 0,9 C 2,9 C 5,9 km/h (2 Bft)
10.01.2023 22:00 4,1 C 8,6 C 1,1 C 3,9 C 3,3 C 0,0 C 79 % 85 % 1018,8 hPa 0,0 l/m 2,7 km/h (1 Bft) S 0,00 h 0,8 C 3,3 C 4,2 km/h (1 Bft)
10.01.2023 23:00 4,3 C 8,5 C 1,1 C 4,0 C 3,3 C 0,0 C 77 % 85 % 1018,1 hPa 0,0 l/m 3,4 km/h (1 Bft) S 0,00 h 0,7 C 3,1 C 5,1 km/h (1 Bft)
11.01.2023 00:00 4,7 C 8,4 C 1,3 C 4,5 C 4,2 C 0,0 C 75 % 84 % 1017,2 hPa 0,0 l/m 3,3 km/h (1 Bft) S 0,00 h 0,7 C 4,2 C 6,9 km/h (2 Bft)
11.01.2023 01:00 5,3 C 8,4 C 2,3 C 5,0 C 4,4 C 0,0 C 72 % 80 % 1016,2 hPa 0,0 l/m 5,2 km/h (1 Bft) S 0,00 h 0,6 C 3,5 C 12,5 km/h (3 Bft)
11.01.2023 02:00 5,6 C 8,3 C 3,1 C 5,3 C 4,7 C 0,0 C 70 % 76 % 1015,6 hPa 0,0 l/m 5,8 km/h (2 Bft) SO 0,00 h 0,6 C 3,5 C 10,2 km/h (2 Bft)
11.01.2023 03:00 5,6 C 8,3 C 3,4 C 5,7 C 5,6 C 0,1 C 72 % 75 % 1014,7 hPa 0,0 l/m 3,5 km/h (1 Bft) S 0,00 h 0,9 C 5,5 C 7,8 km/h (2 Bft)
11.01.2023 04:00 5,7 C 8,3 C 3,4 C 5,8 C 5,7 C 0,1 C 74 % 77 % 1014,0 hPa 0,0 l/m 3,4 km/h (1 Bft) S 0,00 h 1,5 C 5,6 C 6,8 km/h (2 Bft)
11.01.2023 05:00 6,4 C 8,3 C 3,9 C 6,5 C 6,4 C 0,2 C 76 % 78 % 1013,5 hPa 0,0 l/m 2,9 km/h (1 Bft) W-SW 0,00 h 2,5 C 6,4 C 5,5 km/h (1 Bft)
11.01.2023 06:00 6,3 C 8,4 C 4,0 C 6,3 C 6,2 C 0,0 C 79 % 81 % 1013,1 hPa 0,0 l/m 3,8 km/h (1 Bft) S 0,00 h 2,9 C 6,0 C 7,6 km/h (2 Bft)
11.01.2023 07:00 6,4 C 8,4 C 4,1 C 6,4 C 6,2 C 0,0 C 81 % 83 % 1012,8 hPa 0,0 l/m 3,7 km/h (1 Bft) SO 0,00 h 3,3 C 6,0 C 6,3 km/h (2 Bft)
11.01.2023 08:00 6,9 C 8,4 C 4,5 C 6,5 C 5,6 C 0,0 C 81 % 84 % 1012,4 hPa 0,0 l/m 7,2 km/h (2 Bft) SO 0,00 h 3,8 C 4,2 C 11,9 km/h (2 Bft)
11.01.2023 09:00 7,3 C 8,4 C 5,0 C 7,2 C 6,9 C 0,1 C 81 % 84 % 1012,5 hPa 0,0 l/m 5,3 km/h (1 Bft) S 0,00 h 4,3 C 6,2 C 6,6 km/h (2 Bft)
11.01.2023 10:00 8,0 C 8,5 C 6,0 C 8,6 C 8,6 C 0,5 C 80 % 82 % 1012,4 hPa 0,0 l/m 3,8 km/h (1 Bft) SO 0,00 h 4,8 C 8,5 C 4,4 km/h (1 Bft)
11.01.2023 11:00 8,8 C 8,5 C 7,0 C 9,6 C 9,6 C 0,8 C 80 % 80 % 1011,8 hPa 0,0 l/m 5,2 km/h (1 Bft) S 0,00 h 5,5 C 9,2 C 8,7 km/h (2 Bft)
11.01.2023 12:00 9,7 C 8,6 C 8,1 C 10,6 C 10,5 C 0,9 C 78 % 78 % 1011,2 hPa 0,0 l/m 6,7 km/h (2 Bft) S-SO 0,00 h 6,0 C 10,2 C 10,1 km/h (2 Bft)
11.01.2023 13:00 9,3 C 9,0 C 7,8 C 9,2 C 8,9 C 0,1 C 80 % 81 % 1010,8 hPa 0,7 l/m 3,9 km/h (1 Bft) SO 0,00 h 6,0 C 8,8 C 8,3 km/h (2 Bft)
11.01.2023 14:00 8,4 C 9,3 C 6,3 C 8,1 C 7,5 C 0,0 C 84 % 88 % 1010,7 hPa 0,0 l/m 3,7 km/h (1 Bft) S-SO 0,00 h 5,8 C 7,5 C 6,4 km/h (2 Bft)
11.01.2023 15:00 8,1 C 9,4 C 5,9 C 7,9 C 7,6 C 0,0 C 86 % 90 % 1010,9 hPa 0,7 l/m 2,4 km/h (1 Bft) S 0,00 h 5,9 C 7,6 C 4,3 km/h (1 Bft)
11.01.2023 16:00 8,0 C 9,5 C 5,6 C 7,8 C 7,5 C 0,0 C 86 % 91 % 1011,3 hPa 0,7 l/m 1,6 km/h (1 Bft) S 0,00 h 5,9 C 7,5 C 3,2 km/h (1 Bft)
11.01.2023 17:00 8,0 C 9,5 C 5,7 C 7,9 C 7,6 C 0,0 C 88 % 92 % 1012,0 hPa 1,4 l/m 0,7 km/h (0 Bft) S-SW 0,00 h 6,1 C 7,6 C 0,9 km/h (0 Bft)
11.01.2023 18:00 7,9 C 9,6 C 5,6 C 7,8 C 7,6 C 0,0 C 88 % 92 % 1012,8 hPa 0,0 l/m 1,1 km/h (1 Bft) O-SO 0,00 h 6,0 C 7,6 C 1,8 km/h (1 Bft)
11.01.2023 19:00 7,9 C 9,6 C 5,5 C 7,7 C 7,5 C 0,0 C 89 % 93 % 1013,1 hPa 0,0 l/m 2,1 km/h (1 Bft) S 0,00 h 6,1 C 7,5 C 3,4 km/h (1 Bft)
11.01.2023 20:00 7,7 C 9,6 C 4,8 C 7,5 C 7,0 C 0,0 C 88 % 93 % 1013,7 hPa 0,0 l/m 3,3 km/h (1 Bft) SW 0,00 h 5,8 C 7,0 C 4,5 km/h (1 Bft)
11.01.2023 21:00 7,0 C 9,6 C 4,1 C 6,7 C 6,2 C 0,0 C 87 % 93 % 1014,5 hPa 0,0 l/m 1,6 km/h (1 Bft) S-SW 0,00 h 5,0 C 6,2 C 2,1 km/h (1 Bft)
11.01.2023 22:00 6,6 C 9,5 C 3,7 C 6,3 C 5,5 C 0,0 C 86 % 92 % 1015,1 hPa 0,0 l/m 3,6 km/h (1 Bft) O-NO 0,00 h 4,4 C 5,1 C 5,4 km/h (1 Bft)
11.01.2023 23:00 6,3 C 9,3 C 3,2 C 6,0 C 5,6 C 0,0 C 84 % 92 % 1015,1 hPa 0,0 l/m 2,6 km/h (1 Bft) S 0,00 h 3,8 C 5,5 C 2,2 km/h (1 Bft)
12.01.2023 00:00 6,1 C 9,3 C 2,7 C 5,8 C 5,1 C 0,0 C 84 % 92 % 1015,3 hPa 0,0 l/m 2,7 km/h (1 Bft) S 0,00 h 3,6 C 4,8 C 6,3 km/h (2 Bft)
12.01.2023 01:00 6,3 C 9,2 C 2,8 C 5,8 C 4,7 C 0,0 C 83 % 92 % 1015,4 hPa 0,0 l/m 6,0 km/h (2 Bft) S 0,00 h 3,6 C 3,4 C 9,9 km/h (2 Bft)
12.01.2023 02:00 6,3 C 9,1 C 2,9 C 6,0 C 5,3 C 0,0 C 80 % 90 % 1014,7 hPa 0,0 l/m 3,5 km/h (1 Bft) S 0,00 h 3,2 C 5,1 C 7,2 km/h (2 Bft)
12.01.2023 03:00 6,5 C 9,0 C 3,4 C 6,3 C 5,7 C 0,0 C 80 % 87 % 1013,9 hPa 0,0 l/m 3,8 km/h (1 Bft) S-SO 0,00 h 3,3 C 5,3 C 6,7 km/h (2 Bft)
12.01.2023 04:00 7,1 C 9,0 C 4,2 C 6,9 C 6,4 C 0,0 C 78 % 85 % 1013,4 hPa 0,0 l/m 5,2 km/h (1 Bft) S 0,00 h 3,5 C 5,7 C 12,7 km/h (3 Bft)
12.01.2023 05:00 7,5 C 8,9 C 4,9 C 7,2 C 6,3 C 0,0 C 77 % 82 % 1013,0 hPa 0,0 l/m 7,6 km/h (2 Bft) S 0,00 h 3,7 C 4,8 C 11,5 km/h (2 Bft)
12.01.2023 06:00 7,6 C 8,9 C 5,1 C 7,3 C 6,7 C 0,0 C 77 % 82 % 1012,6 hPa 0,0 l/m 6,2 km/h (2 Bft) S-SO 0,00 h 3,8 C 5,6 C 9,3 km/h (2 Bft)
12.01.2023 07:00 7,6 C 8,9 C 5,1 C 7,5 C 7,1 C 0,0 C 78 % 82 % 1012,5 hPa 0,0 l/m 4,3 km/h (1 Bft) S 0,00 h 4,0 C 6,8 C 8,4 km/h (2 Bft)
12.01.2023 08:00 7,9 C 8,9 C 5,5 C 7,8 C 7,5 C 0,0 C 78 % 82 % 1012,3 hPa 0,0 l/m 4,9 km/h (1 Bft) S 0,00 h 4,3 C 7,0 C 7,3 km/h (2 Bft)
12.01.2023 09:00 8,2 C 8,8 C 5,8 C 7,9 C 7,5 C 0,0 C 77 % 81 % 1011,9 hPa 0,0 l/m 6,4 km/h (2 Bft) S-SO 0,00 h 4,4 C 6,5 C 12,4 km/h (3 Bft)
12.01.2023 10:00 8,5 C 8,8 C 6,2 C 8,3 C 8,0 C 0,0 C 75 % 80 % 1012,1 hPa 0,0 l/m 6,7 km/h (2 Bft) S 0,00 h 4,4 C 7,0 C 9,5 km/h (2 Bft)
12.01.2023 11:00 8,8 C 8,8 C 6,7 C 8,8 C 8,4 C 0,0 C 74 % 78 % 1011,3 hPa 0,0 l/m 7,9 km/h (2 Bft) S 0,00 h 4,4 C 7,2 C 12,8 km/h (3 Bft)
12.01.2023 12:00 8,6 C 8,9 C 7,1 C 8,3 C 7,7 C 0,0 C 75 % 77 % 1010,6 hPa 0,0 l/m 8,4 km/h (2 Bft) S-SO 0,00 h 4,6 C 6,2 C 12,1 km/h (2 Bft)
12.01.2023 13:00 8,4 C 9,0 C 6,4 C 7,9 C 6,8 C 0,0 C 79 % 82 % 1010,1 hPa 0,0 l/m 5,5 km/h (1 Bft) S 0,00 h 5,0 C 6,0 C 8,2 km/h (2 Bft)
12.01.2023 14:00 8,4 C 9,1 C 6,2 C 7,9 C 6,7 C 0,0 C 81 % 85 % 1009,8 hPa 0,0 l/m 5,0 km/h (1 Bft) S-SO 0,00 h 5,3 C 6,3 C 7,5 km/h (2 Bft)
12.01.2023 15:00 8,5 C 9,2 C 6,3 C 8,1 C 7,3 C 0,0 C 81 % 86 % 1009,9 hPa 0,7 l/m 5,2 km/h (1 Bft) SW 0,00 h 5,5 C 6,6 C 6,3 km/h (2 Bft)
12.01.2023 16:00 8,7 C 9,2 C 6,4 C 8,5 C 8,1 C 0,0 C 81 % 85 % 1010,1 hPa 0,0 l/m 4,9 km/h (1 Bft) NO 0,00 h 5,7 C 7,7 C 8,0 km/h (2 Bft)
12.01.2023 17:00 9,0 C 9,3 C 6,7 C 8,9 C 8,7 C 0,0 C 81 % 84 % 1010,3 hPa 0,0 l/m 5,0 km/h (1 Bft) SO 0,00 h 5,9 C 8,3 C 7,3 km/h (2 Bft)
12.01.2023 18:00 9,3 C 9,3 C 6,9 C 9,2 C 8,9 C 0,0 C 80 % 83 % 1010,2 hPa 0,0 l/m 4,1 km/h (1 Bft) S-SW 0,00 h 6,0 C 8,8 C 3,6 km/h (1 Bft)
12.01.2023 19:00 9,5 C 9,3 C 7,1 C 9,4 C 9,3 C 0,0 C 80 % 84 % 1009,7 hPa 0,0 l/m 3,9 km/h (1 Bft) S 0,00 h 6,2 C 9,1 C 7,4 km/h (2 Bft)
12.01.2023 20:00 9,2 C 9,5 C 6,8 C 8,7 C 7,7 C 0,0 C 82 % 86 % 1009,8 hPa 0,0 l/m 5,7 km/h (1 Bft) S-SO 0,00 h 6,2 C 7,0 C 9,6 km/h (2 Bft)
12.01.2023 21:00 9,2 C 9,5 C 6,7 C 8,9 C 8,3 C 0,0 C 82 % 87 % 1009,6 hPa 0,0 l/m 5,2 km/h (1 Bft) S 0,00 h 6,3 C 7,8 C 9,5 km/h (2 Bft)
12.01.2023 22:00 9,6 C 9,4 C 7,1 C 9,6 C 9,4 C 0,0 C 79 % 84 % 1008,9 hPa 0,0 l/m 5,1 km/h (1 Bft) SO 0,00 h 6,2 C 9,1 C 7,3 km/h (2 Bft)
12.01.2023 23:00 9,5 C 9,4 C 7,1 C 9,4 C 9,2 C 0,0 C 79 % 83 % 1008,9 hPa 0,0 l/m 4,9 km/h (1 Bft) S-SO 0,00 h 6,1 C 9,0 C 7,3 km/h (2 Bft)
13.01.2023 00:00 9,6 C 9,5 C 7,3 C 9,7 C 9,7 C 0,1 C 79 % 83 % 1008,7 hPa 0,0 l/m 3,7 km/h (1 Bft) SO 0,00 h 6,2 C 9,6 C 8,8 km/h (2 Bft)
13.01.2023 01:00 9,7 C 9,5 C 7,5 C 9,7 C 9,7 C 0,1 C 78 % 81 % 1008,0 hPa 0,0 l/m 4,6 km/h (1 Bft) SO 0,00 h 6,0 C 9,5 C 6,6 km/h (2 Bft)
13.01.2023 02:00 9,8 C 9,5 C 7,4 C 9,6 C 9,3 C 0,0 C 78 % 81 % 1007,4 hPa 0,0 l/m 5,7 km/h (1 Bft) S-SO 0,00 h 6,1 C 8,8 C 10,5 km/h (2 Bft)
13.01.2023 03:00 9,9 C 9,5 C 7,5 C 9,7 C 9,4 C 0,0 C 77 % 80 % 1007,3 hPa 0,0 l/m 5,9 km/h (2 Bft) S 0,00 h 6,1 C 8,9 C 9,5 km/h (2 Bft)
13.01.2023 04:00 9,8 C 9,7 C 7,7 C 9,8 C 9,7 C 0,0 C 78 % 80 % 1006,7 hPa 0,0 l/m 4,7 km/h (1 Bft) SO 0,00 h 6,2 C 9,4 C 7,7 km/h (2 Bft)
13.01.2023 05:00 9,6 C 9,7 C 7,5 C 9,7 C 9,6 C 0,1 C 80 % 82 % 1006,5 hPa 0,0 l/m 4,4 km/h (1 Bft) S-SW 0,00 h 6,3 C 9,4 C 7,6 km/h (2 Bft)
13.01.2023 06:00 9,4 C 9,8 C 7,3 C 9,4 C 9,3 C 0,0 C 80 % 83 % 1006,4 hPa 0,0 l/m 3,6 km/h (1 Bft) SO 0,00 h 6,2 C 9,3 C 4,0 km/h (1 Bft)
13.01.2023 07:00 9,4 C 9,8 C 6,9 C 9,1 C 8,6 C 0,0 C 81 % 85 % 1006,3 hPa 0,0 l/m 5,6 km/h (1 Bft) SO 0,00 h 6,2 C 8,0 C 9,5 km/h (2 Bft)
13.01.2023 08:00 9,6 C 9,8 C 7,3 C 9,4 C 9,0 C 0,0 C 80 % 84 % 1006,2 hPa 0,0 l/m 6,9 km/h (2 Bft) S-SO 0,00 h 6,3 C 8,1 C 8,4 km/h (2 Bft)
13.01.2023 09:00 9,4 C 9,9 C 7,2 C 9,1 C 8,4 C 0,0 C 80 % 84 % 1006,7 hPa 1,4 l/m 6,3 km/h (2 Bft) SW 0,00 h 6,1 C 7,6 C 6,5 km/h (2 Bft)
13.01.2023 10:00 7,4 C 10,2 C 5,5 C 7,3 C 7,0 C 0,0 C 85 % 91 % 1007,8 hPa 0,0 l/m 2,3 km/h (1 Bft) SW 0,00 h 5,1 C 7,0 C 3,7 km/h (1 Bft)
13.01.2023 11:00 7,4 C 10,1 C 5,4 C 7,3 C 7,1 C 0,0 C 85 % 91 % 1007,5 hPa 0,0 l/m 2,7 km/h (1 Bft) S-SO 0,00 h 5,1 C 7,0 C 3,7 km/h (1 Bft)
13.01.2023 12:00 7,9 C 9,9 C 5,6 C 8,7 C 8,7 C 0,8 C 83 % 91 % 1008,0 hPa 0,0 l/m 2,5 km/h (1 Bft) SO 0,00 h 5,2 C 8,7 C 4,2 km/h (1 Bft)
13.01.2023 13:00 8,9 C 9,8 C 6,1 C 10,9 C 10,9 C 2,0 C 79 % 87 % 1008,2 hPa 0,0 l/m 4,1 km/h (1 Bft) S-SO 0,25 h 5,4 C 10,8 C 7,2 km/h (2 Bft)
13.01.2023 14:00 9,4 C 9,8 C 6,3 C 12,4 C 12,4 C 3,0 C 76 % 85 % 1008,7 hPa 0,0 l/m 3,9 km/h (1 Bft) W-SW 0,50 h 5,4 C 12,4 C 7,0 km/h (2 Bft)
13.01.2023 15:00 9,1 C 9,8 C 6,4 C 9,8 C 9,4 C 0,8 C 75 % 85 % 1008,7 hPa 0,0 l/m 7,1 km/h (2 Bft) SW 0,00 h 4,8 C 8,6 C 9,8 km/h (2 Bft)
13.01.2023 16:00 8,1 C 9,7 C 5,3 C 7,7 C 6,6 C 0,0 C 69 % 81 % 1009,3 hPa 0,0 l/m 7,2 km/h (2 Bft) SW 0,00 h 2,7 C 5,3 C 8,5 km/h (2 Bft)
13.01.2023 17:00 7,4 C 9,7 C 4,4 C 6,9 C 6,2 C 0,0 C 74 % 82 % 1010,3 hPa 0,0 l/m 4,3 km/h (1 Bft) S-SO 0,00 h 3,0 C 5,7 C 7,9 km/h (2 Bft)
13.01.2023 18:00 6,8 C 9,6 C 4,5 C 6,7 C 6,3 C 0,0 C 75 % 80 % 1010,8 hPa 0,0 l/m 4,3 km/h (1 Bft) SO 0,00 h 2,7 C 5,9 C 8,0 km/h (2 Bft)
13.01.2023 19:00 6,8 C 9,6 C 4,5 C 6,5 C 6,0 C 0,0 C 76 % 80 % 1011,5 hPa 0,0 l/m 5,2 km/h (1 Bft) SO 0,00 h 2,8 C 5,1 C 9,4 km/h (2 Bft)
13.01.2023 20:00 6,8 C 9,5 C 4,6 C 6,8 C 6,7 C 0,0 C 77 % 80 % 1012,2 hPa 0,0 l/m 2,8 km/h (1 Bft) SW 0,00 h 3,0 C 6,5 C 5,3 km/h (1 Bft)
13.01.2023 21:00 7,0 C 9,5 C 4,8 C 6,9 C 6,6 C 0,0 C 77 % 81 % 1013,2 hPa 0,0 l/m 4,4 km/h (1 Bft) S 0,00 h 3,3 C 6,4 C 6,9 km/h (2 Bft)
13.01.2023 22:00 6,8 C 9,4 C 4,4 C 6,6 C 6,2 C 0,0 C 79 % 82 % 1013,7 hPa 0,0 l/m 4,7 km/h (1 Bft) S-SW 0,00 h 3,4 C 5,6 C 7,6 km/h (2 Bft)
13.01.2023 23:00 7,1 C 9,4 C 4,8 C 7,0 C 6,7 C 0,1 C 79 % 83 % 1014,1 hPa 0,0 l/m 4,2 km/h (1 Bft) SW 0,00 h 3,7 C 6,2 C 6,6 km/h (2 Bft)
14.01.2023 00:00 7,0 C 9,4 C 4,3 C 6,5 C 5,4 C 0,0 C 79 % 83 % 1014,4 hPa 0,0 l/m 6,9 km/h (2 Bft) SW 0,00 h 3,6 C 3,9 C 10,7 km/h (2 Bft)
14.01.2023 01:00 6,6 C 9,3 C 3,8 C 6,3 C 5,6 C 0,0 C 79 % 84 % 1015,0 hPa 0,0 l/m 4,4 km/h (1 Bft) SO 0,00 h 3,2 C 5,0 C 5,3 km/h (1 Bft)
14.01.2023 02:00 6,7 C 9,3 C 4,3 C 6,6 C 6,5 C 0,0 C 78 % 82 % 1015,0 hPa 0,0 l/m 2,8 km/h (1 Bft) S-SO 0,00 h 3,2 C 6,5 C 6,0 km/h (2 Bft)
14.01.2023 03:00 6,3 C 9,2 C 3,8 C 6,1 C 5,7 C 0,0 C 78 % 81 % 1015,6 hPa 0,0 l/m 2,5 km/h (1 Bft) S 0,00 h 2,6 C 5,7 C 4,3 km/h (1 Bft)
14.01.2023 04:00 6,0 C 9,2 C 3,4 C 5,8 C 5,4 C 0,0 C 78 % 82 % 1015,8 hPa 0,0 l/m 2,5 km/h (1 Bft) SO 0,00 h 2,4 C 5,3 C 4,2 km/h (1 Bft)
14.01.2023 05:00 6,0 C 9,1 C 3,5 C 5,8 C 5,6 C 0,0 C 78 % 82 % 1015,7 hPa 0,0 l/m 2,1 km/h (1 Bft) S 0,00 h 2,5 C 5,6 C 4,2 km/h (1 Bft)
14.01.2023 06:00 6,0 C 9,1 C 3,5 C 5,9 C 5,6 C 0,0 C 78 % 82 % 1015,8 hPa 0,0 l/m 2,9 km/h (1 Bft) SW 0,00 h 2,5 C 5,6 C 3,6 km/h (1 Bft)
14.01.2023 07:00 5,9 C 9,0 C 3,5 C 5,8 C 5,5 C 0,0 C 77 % 81 % 1015,9 hPa 0,0 l/m 2,4 km/h (1 Bft) S 0,00 h 2,2 C 5,5 C 4,3 km/h (1 Bft)
14.01.2023 08:00 5,8 C 9,0 C 3,3 C 5,7 C 5,4 C 0,0 C 77 % 81 % 1015,8 hPa 0,0 l/m 1,9 km/h (1 Bft) SO 0,00 h 2,1 C 5,4 C 3,4 km/h (1 Bft)
14.01.2023 09:00 5,7 C 9,0 C 3,3 C 5,6 C 5,4 C 0,0 C 79 % 83 % 1015,8 hPa 0,0 l/m 3,5 km/h (1 Bft) S-SO 0,00 h 2,3 C 5,4 C 4,1 km/h (1 Bft)
14.01.2023 10:00 6,4 C 8,9 C 4,0 C 6,7 C 6,6 C 0,3 C 78 % 82 % 1016,0 hPa 0,0 l/m 4,1 km/h (1 Bft) SO 0,00 h 2,8 C 6,3 C 4,9 km/h (1 Bft)
14.01.2023 11:00 7,2 C 8,9 C 5,2 C 8,0 C 8,0 C 0,8 C 74 % 77 % 1015,4 hPa 0,0 l/m 5,1 km/h (1 Bft) S 0,00 h 2,9 C 7,4 C 10,9 km/h (2 Bft)
14.01.2023 12:00 7,9 C 8,8 C 6,2 C 8,8 C 8,7 C 0,9 C 72 % 74 % 1014,3 hPa 0,0 l/m 5,8 km/h (2 Bft) S-SO 0,00 h 3,2 C 8,1 C 9,6 km/h (2 Bft)
14.01.2023 13:00 8,3 C 8,8 C 6,6 C 8,5 C 8,4 C 0,3 C 71 % 73 % 1013,6 hPa 0,0 l/m 6,2 km/h (2 Bft) S-SO 0,00 h 3,3 C 7,5 C 10,6 km/h (2 Bft)
14.01.2023 14:00 8,4 C 8,9 C 6,5 C 8,3 C 7,8 C 0,0 C 68 % 72 % 1011,8 hPa 0,0 l/m 6,6 km/h (2 Bft) S-SO 0,00 h 2,9 C 6,8 C 9,5 km/h (2 Bft)
14.01.2023 15:00 8,3 C 8,9 C 6,2 C 8,0 C 7,2 C 0,0 C 71 % 74 % 1010,5 hPa 0,0 l/m 8,8 km/h (2 Bft) S-SO 0,00 h 3,3 C 5,5 C 14,8 km/h (3 Bft)
14.01.2023 16:00 8,1 C 9,0 C 5,7 C 7,7 C 6,6 C 0,0 C 75 % 80 % 1009,6 hPa 0,0 l/m 6,2 km/h (2 Bft) SO 0,00 h 3,8 C 5,5 C 8,3 km/h (2 Bft)
14.01.2023 17:00 7,8 C 9,1 C 5,3 C 7,5 C 7,0 C 0,0 C 78 % 83 % 1008,0 hPa 0,0 l/m 2,6 km/h (1 Bft) S 0,00 h 4,1 C 7,0 C 5,6 km/h (1 Bft)
14.01.2023 18:00 8,3 C 9,0 C 5,6 C 7,5 C 5,3 C 0,0 C 76 % 83 % 1007,1 hPa 0,0 l/m 9,0 km/h (2 Bft) S-SO 0,00 h 4,3 C 3,4 C 14,9 km/h (3 Bft)
14.01.2023 19:00 8,0 C 9,2 C 5,5 C 7,1 C 4,7 C 0,0 C 79 % 85 % 1006,5 hPa 0,7 l/m 9,4 km/h (2 Bft) S 0,00 h 4,5 C 2,4 C 15,5 km/h (3 Bft)
14.01.2023 20:00 8,2 C 9,2 C 5,7 C 7,3 C 4,8 C 0,0 C 80 % 86 % 1005,6 hPa 0,0 l/m 10,9 km/h (2 Bft) S 0,00 h 5,0 C 2,3 C 15,7 km/h (3 Bft)
14.01.2023 21:00 8,6 C 9,3 C 6,1 C 8,0 C 6,6 C 0,0 C 81 % 86 % 1004,8 hPa 0,0 l/m 9,6 km/h (2 Bft) S-SO 0,00 h 5,4 C 4,7 C 16,1 km/h (3 Bft)
14.01.2023 22:00 9,3 C 9,3 C 6,9 C 8,9 C 8,0 C 0,0 C 78 % 83 % 1003,9 hPa 0,0 l/m 9,9 km/h (2 Bft) SO 0,00 h 5,7 C 6,3 C 11,4 km/h (2 Bft)
14.01.2023 23:00 9,6 C 9,3 C 7,4 C 9,4 C 8,5 C 0,0 C 78 % 81 % 1002,8 hPa 0,0 l/m 9,3 km/h (2 Bft) SO 0,00 h 5,9 C 7,0 C 13,4 km/h (3 Bft)
15.01.2023 00:00 9,8 C 9,3 C 7,5 C 9,5 C 8,7 C 0,0 C 77 % 81 % 1002,1 hPa 0,0 l/m 9,0 km/h (2 Bft) SO 0,00 h 6,0 C 7,3 C 16,0 km/h (3 Bft)
15.01.2023 01:00 9,9 C 9,4 C 7,7 C 9,7 C 9,1 C 0,0 C 78 % 82 % 1001,3 hPa 0,0 l/m 7,9 km/h (2 Bft) W-SW 0,00 h 6,3 C 8,0 C 8,9 km/h (2 Bft)
15.01.2023 02:00 10,1 C 9,4 C 8,0 C 9,9 C 9,2 C 0,0 C 79 % 82 % 1000,3 hPa 0,0 l/m 8,3 km/h (2 Bft) O-SO 0,00 h 6,6 C 8,0 C 10,1 km/h (2 Bft)
15.01.2023 03:00 10,4 C 9,5 C 8,3 C 10,2 C 9,5 C 0,0 C 79 % 82 % 999,7 hPa 0,0 l/m 9,1 km/h (2 Bft) S 0,00 h 6,9 C 8,2 C 14,0 km/h (3 Bft)
15.01.2023 04:00 10,6 C 9,7 C 8,5 C 10,4 C 10,0 C 0,0 C 78 % 81 % 999,1 hPa 0,0 l/m 7,6 km/h (2 Bft) S 0,00 h 7,0 C 9,4 C 9,9 km/h (2 Bft)
15.01.2023 05:00 10,8 C 9,8 C 8,7 C 10,7 C 10,5 C 0,0 C 78 % 81 % 998,4 hPa 0,0 l/m 6,3 km/h (2 Bft) W-SW 0,00 h 7,1 C 10,4 C 11,4 km/h (2 Bft)
15.01.2023 06:00 10,1 C 10,0 C 7,9 C 9,8 C 9,1 C 0,0 C 80 % 84 % 998,1 hPa 0,7 l/m 6,8 km/h (2 Bft) SW 0,00 h 6,8 C 8,4 C 7,7 km/h (2 Bft)
15.01.2023 07:00 7,7 C 10,3 C 5,6 C 7,4 C 6,8 C 0,0 C 86 % 91 % 999,1 hPa 0,7 l/m 4,3 km/h (1 Bft) W-SW 0,00 h 5,4 C 6,1 C 5,4 km/h (1 Bft)
15.01.2023 08:00 5,7 C 10,3 C 3,8 C 5,6 C 5,4 C 0,0 C 87 % 92 % 1000,3 hPa 1,4 l/m 0,2 km/h (0 Bft) N 0,00 h 3,7 C 5,4 C 0,2 km/h (0 Bft)
15.01.2023 09:00 5,2 C 10,2 C 3,5 C 5,2 C 5,2 C 0,1 C 88 % 93 % 1001,0 hPa 0,7 l/m 0,3 km/h (0 Bft) N 0,00 h 3,4 C 5,2 C 0,6 km/h (0 Bft)
15.01.2023 10:00 5,2 C 10,2 C 3,8 C 5,5 C 5,5 C 0,4 C 89 % 93 % 1001,7 hPa 0,0 l/m 1,4 km/h (1 Bft) SO 0,00 h 3,5 C 5,5 C 2,1 km/h (1 Bft)
15.01.2023 11:00 5,3 C 10,0 C 3,9 C 5,6 C 5,5 C 0,3 C 88 % 91 % 1002,4 hPa 0,0 l/m 4,2 km/h (1 Bft) S 0,00 h 3,6 C 5,0 C 5,4 km/h (1 Bft)
15.01.2023 12:00 5,7 C 9,8 C 3,9 C 5,7 C 5,4 C 0,0 C 83 % 88 % 1002,6 hPa 0,0 l/m 7,1 km/h (2 Bft) S-SW 0,00 h 3,0 C 3,9 C 9,5 km/h (2 Bft)
15.01.2023 13:00 6,0 C 9,5 C 4,3 C 6,0 C 5,7 C 0,0 C 79 % 86 % 1003,0 hPa 0,7 l/m 7,7 km/h (2 Bft) S-SW 0,00 h 2,6 C 4,1 C 10,9 km/h (2 Bft)
15.01.2023 14:00 5,9 C 9,4 C 4,1 C 5,8 C 5,3 C 0,0 C 77 % 84 % 1003,0 hPa 0,0 l/m 6,6 km/h (2 Bft) S 0,00 h 2,2 C 4,0 C 9,2 km/h (2 Bft)
15.01.2023 15:00 5,8 C 9,3 C 3,7 C 5,4 C 4,4 C 0,0 C 76 % 84 % 1003,7 hPa 0,0 l/m 8,0 km/h (2 Bft) S 0,00 h 1,9 C 2,5 C 11,6 km/h (2 Bft)
15.01.2023 16:00 5,2 C 9,2 C 2,7 C 4,5 C 2,4 C 0,0 C 75 % 83 % 1004,8 hPa 0,0 l/m 11,4 km/h (2 Bft) SW 0,00 h 1,1 C -0,8 C 14,5 km/h (3 Bft)
15.01.2023 17:00 4,4 C 9,0 C 1,9 C 3,8 C 2,5 C 0,0 C 77 % 84 % 1005,6 hPa 0,0 l/m 5,7 km/h (1 Bft) SW 0,00 h 0,7 C 1,3 C 9,0 km/h (2 Bft)
15.01.2023 18:00 4,1 C 8,9 C 1,7 C 3,5 C 2,3 C 0,0 C 77 % 82 % 1005,6 hPa 0,0 l/m 5,0 km/h (1 Bft) SO 0,00 h 0,4 C 1,4 C 11,2 km/h (2 Bft)
15.01.2023 19:00 4,2 C 8,8 C 1,7 C 3,6 C 2,4 C 0,0 C 77 % 82 % 1006,0 hPa 0,0 l/m 4,8 km/h (1 Bft) S 0,00 h 0,5 C 1,5 C 7,8 km/h (2 Bft)
15.01.2023 20:00 4,3 C 8,7 C 1,8 C 3,8 C 2,8 C 0,0 C 76 % 81 % 1005,7 hPa 0,0 l/m 4,1 km/h (1 Bft) O-NO 0,00 h 0,5 C 2,6 C 6,5 km/h (2 Bft)
15.01.2023 21:00 4,5 C 8,6 C 2,1 C 3,9 C 2,6 C 0,0 C 76 % 81 % 1005,5 hPa 0,0 l/m 5,5 km/h (1 Bft) W-NW 0,00 h 0,6 C 1,2 C 7,5 km/h (2 Bft)
15.01.2023 22:00 4,6 C 8,5 C 2,2 C 4,0 C 2,9 C 0,0 C 76 % 80 % 1005,4 hPa 0,0 l/m 5,0 km/h (1 Bft) SW 0,00 h 0,8 C 1,9 C 6,3 km/h (2 Bft)
15.01.2023 23:00 4,3 C 8,4 C 1,9 C 3,9 C 3,2 C 0,0 C 77 % 81 % 1005,3 hPa 0,0 l/m 3,6 km/h (1 Bft) SW 0,00 h 0,5 C 3,0 C 5,1 km/h (1 Bft)
Min-Datum _ 09.01.23 11.01.23 10.01.23 15.01.23 15.01.23 09.01.23 13.01.23 14.01.23 09.01.23 - 09.01.23 - - 15.01.23 15.01.23 09.01.23
_ Min-Zeit 00:00 02:00 20:50 18:50 18:45 00:00 16:15 14:25 06:45 - 00:00 - - 18:50 16:35 00:00
Minimum _ 3,7 C 8,3 C 0,7 C 3,3 C 1,6 C 0,0 C 67 % 70 % 997,2 hPa - 0,0 km/h (0 Bft) - - 0,3 C -1,6 C 0,0 km/h (0 Bft)
Max-Datum _ 15.01.23 15.01.23 15.01.23 13.01.23 13.01.23 13.01.23 11.01.23 09.01.23 10.01.23 11.01.23 14.01.23 - 13.01.23 15.01.23 13.01.23 14.01.23
_ Max-Zeit 05:55 06:40 05:40 14:00 14:00 13:50 18:45 05:50 19:45 17:25 20:45 - 13:45 06:15 14:00 21:55
Maximum _ 10,9 C 10,3 C 8,8 C 13,5 C 13,5 C 4,0 C 89 % 93 % 1020,1 hPa 1,4 l/m 13,4 km/h
S (3 Bft)
- 0,08 h 7,4 C 13,5 C 40,6 km/h
S-SO (6 Bft)
Durchschnitt _ 7,1 C 9,2 C 4,7 C 7,0 C 6,5 C 0,1 C 80 % 85 % 1009,3 hPa #11,7 l/m 4,1 km/h (1 Bft) S #45 min. 3,8 C 6,1 C 6,4 km/h (2 Bft)
2023 www.wetterstation-wechselburg.de